Terminal Aerodrome Forecast
Issued by NWS

Home | Current Version | Previous Version | Text Only | Print | Product List | Glossary Off
Versions: 1 2 3 4 5 6 7 8 9 10 11 12 13 14 15 16 17

000
FTUS43 KBIS 240800 AAA
TAFMOT
TAF AMD
KMOT 240808Z 2408/2506 20007KT P6SM VCFG FEW130
      TEMPO 2409/2413 4SM BR
     FM241400 27011KT P6SM FEW120
     FM241800 29015G21KT P6SM VCSH SCT060 BKN080
     FM250200 27004KT P6SM FEW100=

USA.gov is the U.S. government's official web portal to all federal, state and local government web resources and services.